createdAt,value
2024-04-13T00:01:35.992Z,81.46
2024-04-13T00:05:40.035Z,82.15
2024-04-13T00:09:41.368Z,82.75
2024-04-13T00:13:52.125Z,86.23
2024-04-13T00:17:59.563Z,92.14
2024-04-13T00:22:09.223Z,99.94
2024-04-13T00:26:10.612Z,100.00
2024-04-13T00:30:13.456Z,99.81
2024-04-13T00:34:16.862Z,100.00
2024-04-13T00:38:17.874Z,100.00
2024-04-13T00:42:23.221Z,100.00
2024-04-13T00:46:26.428Z,100.00
2024-04-13T00:50:32.366Z,100.00
2024-04-13T00:54:39.646Z,100.00
2024-04-13T00:58:41.912Z,100.00
2024-04-13T01:02:45.719Z,100.00
2024-04-13T01:06:50.261Z,100.00
2024-04-13T01:10:51.694Z,100.00
2024-04-13T01:14:54.344Z,100.00
2024-04-13T01:18:55.693Z,100.00
2024-04-13T01:23:00.541Z,100.00
2024-04-13T01:27:05.245Z,100.00
2024-04-13T01:31:09.261Z,100.00
2024-04-13T01:35:14.345Z,100.00
2024-04-13T01:39:16.222Z,100.00
2024-04-13T01:43:21.952Z,100.00
2024-04-13T01:47:22.270Z,100.00
2024-04-13T01:51:24.530Z,100.00
2024-04-13T01:55:28.147Z,100.00
2024-04-13T01:59:33.735Z,100.00
2024-04-13T02:03:35.241Z,100.00
2024-04-13T02:07:47.821Z,100.00
2024-04-13T02:11:52.748Z,100.00
2024-04-13T02:16:07.257Z,100.00
2024-04-13T02:20:06.534Z,100.00
2024-04-13T02:24:12.244Z,100.00
2024-04-13T02:28:16.822Z,100.00
2024-04-13T02:32:20.663Z,100.00
2024-04-13T02:36:22.267Z,100.00
2024-04-13T02:40:24.930Z,100.00
2024-04-13T02:44:29.200Z,100.00
2024-04-13T02:48:32.927Z,100.00
2024-04-13T02:52:39.931Z,100.00
2024-04-13T02:56:40.876Z,100.00
2024-04-13T03:00:44.856Z,100.00
2024-04-13T03:04:48.193Z,100.00
2024-04-13T03:08:53.663Z,100.00
2024-04-13T03:13:00.329Z,100.00
2024-04-13T03:17:07.117Z,100.00
2024-04-13T03:21:11.000Z,100.00
2024-04-13T03:25:15.858Z,99.91
2024-04-13T03:29:22.406Z,99.77
2024-04-13T03:33:26.332Z,98.00
2024-04-13T03:37:37.541Z,99.44
2024-04-13T03:41:38.708Z,99.72
2024-04-13T03:45:42.336Z,99.07
2024-04-13T03:50:06.986Z,98.60
2024-04-13T03:54:13.410Z,97.69
2024-04-13T03:58:16.867Z,98.43
2024-04-13T04:02:19.148Z,98.22
2024-04-13T04:06:29.914Z,99.61
2024-04-13T04:10:35.628Z,99.06
2024-04-13T04:14:43.269Z,98.20
2024-04-13T04:18:47.104Z,96.80
2024-04-13T04:23:33.847Z,96.56
2024-04-13T04:33:47.380Z,100.00
2024-04-13T04:38:13.297Z,100.00
2024-04-13T04:43:24.699Z,100.00
2024-04-13T04:48:10.467Z,100.00
2024-04-13T04:53:10.229Z,100.00
2024-04-13T04:57:35.558Z,100.00
2024-04-13T05:01:54.845Z,100.00
2024-04-13T05:06:41.002Z,100.00
2024-04-13T05:10:54.538Z,100.00
2024-04-13T05:16:46.195Z,100.00
2024-04-13T13:19:17.411Z,33.07
2024-04-13T14:11:55.868Z,33.33
2024-04-13T14:16:29.994Z,32.47
2024-04-13T14:25:42.520Z,33.71
2024-04-13T14:29:49.174Z,33.39
2024-04-13T14:33:57.106Z,33.55
2024-04-13T14:38:18.427Z,33.41
2024-04-13T14:42:34.315Z,33.06
2024-04-13T14:46:43.024Z,32.61
2024-04-13T14:50:58.372Z,32.30
2024-04-13T14:55:10.546Z,32.41
2024-04-13T14:59:13.116Z,31.85
2024-04-13T15:03:35.266Z,31.48
2024-04-13T15:08:09.074Z,31.19
2024-04-13T15:12:18.891Z,31.63
2024-04-13T15:16:30.091Z,31.09
2024-04-13T15:20:32.474Z,31.56
2024-04-13T15:24:56.963Z,31.91
2024-04-13T15:29:18.350Z,31.88
2024-04-13T15:33:35.525Z,31.68
2024-04-13T15:37:48.843Z,32.16
2024-04-13T15:42:12.523Z,31.85
2024-04-13T15:46:45.038Z,32.27
2024-04-13T15:51:43.748Z,32.40
2024-04-13T16:02:29.000Z,32.89
